sensor_id;sensor_type;location;lat;lon;timestamp;P1;durP1;ratioP1;P2;durP2;ratioP2
48623;SDS011;34422;45.802;16.114;2022-12-10T00:01:18;137.02;;;67.05;;
48623;SDS011;34422;45.802;16.114;2022-12-10T00:03:46;136.65;;;66.85;;
48623;SDS011;34422;45.802;16.114;2022-12-10T00:06:14;102.82;;;53.95;;
48623;SDS011;34422;45.802;16.114;2022-12-10T00:08:43;130.23;;;61.65;;
48623;SDS011;34422;45.802;16.114;2022-12-10T00:11:11;104.85;;;53.42;;
48623;SDS011;34422;45.802;16.114;2022-12-10T00:13:40;115.03;;;55.95;;
48623;SDS011;34422;45.802;16.114;2022-12-10T00:16:08;116.68;;;58.25;;
48623;SDS011;34422;45.802;16.114;2022-12-10T00:18:37;106.70;;;54.70;;
48623;SDS011;34422;45.802;16.114;2022-12-10T00:21:12;99.10;;;54.17;;
48623;SDS011;34422;45.802;16.114;2022-12-10T00:23:40;103.72;;;51.92;;
48623;SDS011;34422;45.802;16.114;2022-12-10T00:26:12;103.22;;;53.63;;
48623;SDS011;34422;45.802;16.114;2022-12-10T00:28:45;93.72;;;48.88;;
48623;SDS011;34422;45.802;16.114;2022-12-10T00:31:13;124.35;;;66.68;;
48623;SDS011;34422;45.802;16.114;2022-12-10T00:33:45;117.68;;;60.15;;
48623;SDS011;34422;45.802;16.114;2022-12-10T00:36:17;92.50;;;52.03;;
48623;SDS011;34422;45.802;16.114;2022-12-10T00:38:52;83.63;;;42.25;;
48623;SDS011;34422;45.802;16.114;2022-12-10T00:41:19;87.70;;;46.33;;
48623;SDS011;34422;45.802;16.114;2022-12-10T00:43:46;77.20;;;41.97;;
48623;SDS011;34422;45.802;16.114;2022-12-10T00:46:14;93.55;;;46.15;;
48623;SDS011;34422;45.802;16.114;2022-12-10T00:48:41;107.07;;;55.58;;
48623;SDS011;34422;45.802;16.114;2022-12-10T00:51:13;103.90;;;52.38;;
48623;SDS011;34422;45.802;16.114;2022-12-10T00:53:43;106.68;;;50.47;;
48623;SDS011;34422;45.802;16.114;2022-12-10T00:56:11;87.85;;;46.15;;
48623;SDS011;34422;45.802;16.114;2022-12-10T00:58:39;89.25;;;46.55;;
48623;SDS011;34422;45.802;16.114;2022-12-10T01:01:11;76.90;;;41.97;;
48623;SDS011;34422;45.802;16.114;2022-12-10T01:03:43;90.05;;;47.50;;
48623;SDS011;34422;45.802;16.114;2022-12-10T01:06:12;96.03;;;49.92;;
48623;SDS011;34422;45.802;16.114;2022-12-10T01:08:41;134.63;;;67.10;;
48623;SDS011;34422;45.802;16.114;2022-12-10T01:11:09;99.72;;;52.83;;
48623;SDS011;34422;45.802;16.114;2022-12-10T01:13:37;106.63;;;53.15;;
48623;SDS011;34422;45.802;16.114;2022-12-10T01:16:05;111.85;;;54.75;;
48623;SDS011;34422;45.802;16.114;2022-12-10T01:18:34;108.47;;;54.10;;
48623;SDS011;34422;45.802;16.114;2022-12-10T01:21:02;103.38;;;51.90;;
48623;SDS011;34422;45.802;16.114;2022-12-10T01:23:35;114.53;;;56.80;;
48623;SDS011;34422;45.802;16.114;2022-12-10T01:26:04;115.03;;;57.75;;
48623;SDS011;34422;45.802;16.114;2022-12-10T01:28:34;107.60;;;53.97;;
48623;SDS011;34422;45.802;16.114;2022-12-10T01:31:03;108.32;;;51.75;;
48623;SDS011;34422;45.802;16.114;2022-12-10T01:33:39;121.00;;;57.97;;
48623;SDS011;34422;45.802;16.114;2022-12-10T01:36:08;120.43;;;57.72;;
48623;SDS011;34422;45.802;16.114;2022-12-10T01:38:40;126.05;;;61.85;;
48623;SDS011;34422;45.802;16.114;2022-12-10T01:41:08;132.50;;;64.40;;
48623;SDS011;34422;45.802;16.114;2022-12-10T01:43:57;123.65;;;59.80;;
48623;SDS011;34422;45.802;16.114;2022-12-10T01:46:40;117.97;;;58.30;;
48623;SDS011;34422;45.802;16.114;2022-12-10T01:49:09;121.82;;;57.88;;
48623;SDS011;34422;45.802;16.114;2022-12-10T01:51:40;122.60;;;56.05;;
48623;SDS011;34422;45.802;16.114;2022-12-10T01:54:10;110.82;;;52.30;;
48623;SDS011;34422;45.802;16.114;2022-12-10T01:59:11;107.30;;;51.05;;
48623;SDS011;34422;45.802;16.114;2022-12-10T02:01:49;90.63;;;46.20;;
48623;SDS011;34422;45.802;16.114;2022-12-10T02:04:32;84.20;;;42.83;;
48623;SDS011;34422;45.802;16.114;2022-12-10T02:12:28;83.45;;;41.67;;
48623;SDS011;34422;45.802;16.114;2022-12-10T02:15:09;82.05;;;42.25;;
48623;SDS011;34422;45.802;16.114;2022-12-10T02:17:45;87.38;;;42.10;;
48623;SDS011;34422;45.802;16.114;2022-12-10T02:20:19;87.25;;;41.53;;
48623;SDS011;34422;45.802;16.114;2022-12-10T02:23:09;82.43;;;40.55;;
48623;SDS011;34422;45.802;16.114;2022-12-10T02:28:31;82.00;;;38.72;;
48623;SDS011;34422;45.802;16.114;2022-12-10T02:30:59;74.53;;;38.15;;
48623;SDS011;34422;45.802;16.114;2022-12-10T02:33:28;70.43;;;34.45;;
48623;SDS011;34422;45.802;16.114;2022-12-10T02:35:57;73.47;;;35.90;;
48623;SDS011;34422;45.802;16.114;2022-12-10T02:38:27;72.03;;;35.72;;
48623;SDS011;34422;45.802;16.114;2022-12-10T02:43:26;70.60;;;34.70;;
48623;SDS011;34422;45.802;16.114;2022-12-10T02:45:56;65.40;;;34.17;;
48623;SDS011;34422;45.802;16.114;2022-12-10T02:48:24;63.20;;;32.75;;
48623;SDS011;34422;45.802;16.114;2022-12-10T02:50:52;63.10;;;31.30;;
48623;SDS011;34422;45.802;16.114;2022-12-10T02:53:19;59.35;;;32.95;;
48623;SDS011;34422;45.802;16.114;2022-12-10T02:55:49;64.65;;;33.35;;
48623;SDS011;34422;45.802;16.114;2022-12-10T03:01:51;64.93;;;34.90;;
48623;SDS011;34422;45.802;16.114;2022-12-10T03:04:45;68.30;;;36.53;;
48623;SDS011;34422;45.802;16.114;2022-12-10T03:07:27;76.30;;;41.42;;
48623;SDS011;34422;45.802;16.114;2022-12-10T03:10:07;71.55;;;38.65;;
48623;SDS011;34422;45.802;16.114;2022-12-10T03:12:46;55.40;;;32.20;;
48623;SDS011;34422;45.802;16.114;2022-12-10T03:15:16;66.80;;;37.40;;
48623;SDS011;34422;45.802;16.114;2022-12-10T03:17:46;51.33;;;29.10;;
48623;SDS011;34422;45.802;16.114;2022-12-10T03:20:14;42.85;;;25.77;;
48623;SDS011;34422;45.802;16.114;2022-12-10T03:22:44;40.75;;;24.80;;
48623;SDS011;34422;45.802;16.114;2022-12-10T03:25:14;36.58;;;21.38;;
48623;SDS011;34422;45.802;16.114;2022-12-10T03:27:45;40.97;;;23.08;;
48623;SDS011;34422;45.802;16.114;2022-12-10T03:30:16;34.45;;;20.90;;
48623;SDS011;34422;45.802;16.114;2022-12-10T03:32:43;34.60;;;20.73;;
48623;SDS011;34422;45.802;16.114;2022-12-10T03:35:11;33.35;;;20.05;;
48623;SDS011;34422;45.802;16.114;2022-12-10T03:37:39;37.90;;;20.55;;
48623;SDS011;34422;45.802;16.114;2022-12-10T03:40:07;35.45;;;22.75;;
48623;SDS011;34422;45.802;16.114;2022-12-10T03:42:36;38.05;;;20.58;;
48623;SDS011;34422;45.802;16.114;2022-12-10T03:45:04;33.47;;;19.23;;
48623;SDS011;34422;45.802;16.114;2022-12-10T03:47:31;37.85;;;21.70;;
48623;SDS011;34422;45.802;16.114;2022-12-10T03:49:59;39.50;;;21.63;;
48623;SDS011;34422;45.802;16.114;2022-12-10T03:52:25;40.78;;;22.20;;
48623;SDS011;34422;45.802;16.114;2022-12-10T03:54:52;41.67;;;23.35;;
48623;SDS011;34422;45.802;16.114;2022-12-10T03:57:20;40.67;;;21.70;;
48623;SDS011;34422;45.802;16.114;2022-12-10T03:59:48;37.75;;;22.25;;
48623;SDS011;34422;45.802;16.114;2022-12-10T04:02:14;43.15;;;21.63;;
48623;SDS011;34422;45.802;16.114;2022-12-10T04:04:41;39.30;;;21.92;;
48623;SDS011;34422;45.802;16.114;2022-12-10T04:07:08;40.58;;;22.50;;
48623;SDS011;34422;45.802;16.114;2022-12-10T04:09:35;35.38;;;20.30;;
48623;SDS011;34422;45.802;16.114;2022-12-10T04:12:02;32.30;;;18.85;;
48623;SDS011;34422;45.802;16.114;2022-12-10T04:14:30;30.80;;;19.33;;
48623;SDS011;34422;45.802;16.114;2022-12-10T04:17:15;30.20;;;16.85;;
48623;SDS011;34422;45.802;16.114;2022-12-10T04:19:42;28.02;;;16.67;;
48623;SDS011;34422;45.802;16.114;2022-12-10T04:22:09;28.98;;;18.25;;
48623;SDS011;34422;45.802;16.114;2022-12-10T04:24:55;29.13;;;17.17;;
48623;SDS011;34422;45.802;16.114;2022-12-10T04:27:40;26.58;;;17.35;;
48623;SDS011;34422;45.802;16.114;2022-12-10T04:30:09;28.05;;;18.23;;
48623;SDS011;34422;45.802;16.114;2022-12-10T04:32:37;29.15;;;15.90;;
48623;SDS011;34422;45.802;16.114;2022-12-10T04:35:04;26.98;;;16.05;;
48623;SDS011;34422;45.802;16.114;2022-12-10T04:37:31;28.58;;;17.33;;
48623;SDS011;34422;45.802;16.114;2022-12-10T04:39:59;26.80;;;16.35;;
48623;SDS011;34422;45.802;16.114;2022-12-10T04:42:25;25.38;;;15.63;;
48623;SDS011;34422;45.802;16.114;2022-12-10T04:44:52;29.10;;;16.85;;
48623;SDS011;34422;45.802;16.114;2022-12-10T04:47:19;25.30;;;15.70;;
48623;SDS011;34422;45.802;16.114;2022-12-10T04:49:46;30.88;;;16.65;;
48623;SDS011;34422;45.802;16.114;2022-12-10T04:52:14;26.08;;;16.45;;
48623;SDS011;34422;45.802;16.114;2022-12-10T04:54:42;26.40;;;15.35;;
48623;SDS011;34422;45.802;16.114;2022-12-10T04:57:10;28.33;;;16.27;;
48623;SDS011;34422;45.802;16.114;2022-12-10T04:59:38;28.90;;;15.52;;
48623;SDS011;34422;45.802;16.114;2022-12-10T05:02:05;30.23;;;17.33;;
48623;SDS011;34422;45.802;16.114;2022-12-10T05:04:32;32.45;;;17.38;;
48623;SDS011;34422;45.802;16.114;2022-12-10T05:06:59;29.55;;;16.63;;
48623;SDS011;34422;45.802;16.114;2022-12-10T05:09:25;32.78;;;17.75;;
48623;SDS011;34422;45.802;16.114;2022-12-10T05:11:52;30.15;;;16.80;;
48623;SDS011;34422;45.802;16.114;2022-12-10T05:14:19;29.27;;;16.63;;
48623;SDS011;34422;45.802;16.114;2022-12-10T05:16:48;33.30;;;16.95;;
48623;SDS011;34422;45.802;16.114;2022-12-10T05:19:16;26.80;;;15.68;;
48623;SDS011;34422;45.802;16.114;2022-12-10T05:21:45;28.13;;;15.43;;
48623;SDS011;34422;45.802;16.114;2022-12-10T05:24:31;25.85;;;14.70;;
48623;SDS011;34422;45.802;16.114;2022-12-10T05:26:58;26.40;;;14.88;;
48623;SDS011;34422;45.802;16.114;2022-12-10T05:29:25;27.52;;;15.18;;
48623;SDS011;34422;45.802;16.114;2022-12-10T05:31:52;26.80;;;14.88;;
48623;SDS011;34422;45.802;16.114;2022-12-10T05:34:19;25.25;;;15.05;;
48623;SDS011;34422;45.802;16.114;2022-12-10T05:36:45;25.65;;;14.55;;
48623;SDS011;34422;45.802;16.114;2022-12-10T05:39:12;28.17;;;14.75;;
48623;SDS011;34422;45.802;16.114;2022-12-10T05:41:39;27.92;;;14.82;;
48623;SDS011;34422;45.802;16.114;2022-12-10T05:44:08;27.17;;;15.23;;
48623;SDS011;34422;45.802;16.114;2022-12-10T05:46:36;25.23;;;13.95;;
48623;SDS011;34422;45.802;16.114;2022-12-10T05:49:04;24.88;;;13.25;;
48623;SDS011;34422;45.802;16.114;2022-12-10T05:51:33;21.10;;;12.27;;
48623;SDS011;34422;45.802;16.114;2022-12-10T05:54:03;15.77;;;9.50;;
48623;SDS011;34422;45.802;16.114;2022-12-10T05:56:31;20.85;;;12.50;;
48623;SDS011;34422;45.802;16.114;2022-12-10T05:58:59;24.10;;;13.52;;
48623;SDS011;34422;45.802;16.114;2022-12-10T06:01:32;23.75;;;13.43;;
48623;SDS011;34422;45.802;16.114;2022-12-10T06:04:01;21.15;;;12.75;;
48623;SDS011;34422;45.802;16.114;2022-12-10T06:06:32;21.90;;;12.75;;
48623;SDS011;34422;45.802;16.114;2022-12-10T06:09:01;20.97;;;12.77;;
48623;SDS011;34422;45.802;16.114;2022-12-10T06:11:28;19.23;;;11.30;;
48623;SDS011;34422;45.802;16.114;2022-12-10T06:13:56;19.58;;;11.20;;
48623;SDS011;34422;45.802;16.114;2022-12-10T06:16:23;17.73;;;11.23;;
48623;SDS011;34422;45.802;16.114;2022-12-10T06:18:52;18.85;;;10.57;;
48623;SDS011;34422;45.802;16.114;2022-12-10T06:21:19;16.90;;;10.68;;
48623;SDS011;34422;45.802;16.114;2022-12-10T06:23:49;15.77;;;10.23;;
48623;SDS011;34422;45.802;16.114;2022-12-10T06:26:19;19.08;;;10.15;;
48623;SDS011;34422;45.802;16.114;2022-12-10T06:28:48;16.20;;;9.77;;
48623;SDS011;34422;45.802;16.114;2022-12-10T06:31:16;13.23;;;8.40;;
48623;SDS011;34422;45.802;16.114;2022-12-10T06:33:43;15.90;;;8.57;;
48623;SDS011;34422;45.802;16.114;2022-12-10T06:36:11;13.63;;;8.32;;
48623;SDS011;34422;45.802;16.114;2022-12-10T06:38:39;13.10;;;7.63;;
48623;SDS011;34422;45.802;16.114;2022-12-10T06:41:07;15.82;;;8.52;;
48623;SDS011;34422;45.802;16.114;2022-12-10T06:43:35;13.05;;;8.07;;
48623;SDS011;34422;45.802;16.114;2022-12-10T06:46:06;12.48;;;7.28;;
48623;SDS011;34422;45.802;16.114;2022-12-10T06:48:34;11.82;;;7.13;;
48623;SDS011;34422;45.802;16.114;2022-12-10T06:51:02;13.63;;;7.53;;
48623;SDS011;34422;45.802;16.114;2022-12-10T06:53:30;13.23;;;6.93;;
48623;SDS011;34422;45.802;16.114;2022-12-10T06:55:59;13.40;;;6.95;;
48623;SDS011;34422;45.802;16.114;2022-12-10T06:58:27;10.52;;;6.75;;
48623;SDS011;34422;45.802;16.114;2022-12-10T07:01:02;13.10;;;7.38;;
48623;SDS011;34422;45.802;16.114;2022-12-10T07:03:33;11.57;;;6.90;;
48623;SDS011;34422;45.802;16.114;2022-12-10T07:06:00;15.65;;;8.68;;
48623;SDS011;34422;45.802;16.114;2022-12-10T07:08:28;13.85;;;7.30;;
48623;SDS011;34422;45.802;16.114;2022-12-10T07:10:55;12.15;;;7.32;;
48623;SDS011;34422;45.802;16.114;2022-12-10T07:13:23;11.82;;;6.40;;
48623;SDS011;34422;45.802;16.114;2022-12-10T07:15:50;12.23;;;6.95;;
48623;SDS011;34422;45.802;16.114;2022-12-10T07:18:17;11.85;;;6.88;;
48623;SDS011;34422;45.802;16.114;2022-12-10T07:20:45;13.27;;;6.80;;
48623;SDS011;34422;45.802;16.114;2022-12-10T07:23:11;18.48;;;8.20;;
48623;SDS011;34422;45.802;16.114;2022-12-10T07:25:38;12.13;;;7.05;;
48623;SDS011;34422;45.802;16.114;2022-12-10T07:28:05;12.60;;;7.40;;
48623;SDS011;34422;45.802;16.114;2022-12-10T07:30:32;10.85;;;6.45;;
48623;SDS011;34422;45.802;16.114;2022-12-10T07:32:59;11.50;;;6.88;;
48623;SDS011;34422;45.802;16.114;2022-12-10T07:35:26;12.75;;;7.55;;
48623;SDS011;34422;45.802;16.114;2022-12-10T07:37:53;10.52;;;6.47;;
48623;SDS011;34422;45.802;16.114;2022-12-10T07:40:20;11.23;;;6.70;;
48623;SDS011;34422;45.802;16.114;2022-12-10T07:42:47;11.52;;;5.97;;
48623;SDS011;34422;45.802;16.114;2022-12-10T07:45:13;9.23;;;5.63;;
48623;SDS011;34422;45.802;16.114;2022-12-10T07:47:40;9.00;;;5.68;;
48623;SDS011;34422;45.802;16.114;2022-12-10T07:50:07;11.38;;;6.00;;
48623;SDS011;34422;45.802;16.114;2022-12-10T07:52:34;9.07;;;5.45;;
48623;SDS011;34422;45.802;16.114;2022-12-10T07:55:01;10.07;;;5.80;;
48623;SDS011;34422;45.802;16.114;2022-12-10T07:57:28;8.25;;;4.70;;
48623;SDS011;34422;45.802;16.114;2022-12-10T07:59:56;9.13;;;5.43;;
48623;SDS011;34422;45.802;16.114;2022-12-10T08:02:24;9.93;;;5.30;;
48623;SDS011;34422;45.802;16.114;2022-12-10T08:04:51;9.40;;;4.88;;
48623;SDS011;34422;45.802;16.114;2022-12-10T08:07:18;10.10;;;5.80;;
48623;SDS011;34422;45.802;16.114;2022-12-10T08:09:45;8.13;;;5.05;;
48623;SDS011;34422;45.802;16.114;2022-12-10T08:12:12;10.27;;;5.90;;
48623;SDS011;34422;45.802;16.114;2022-12-10T08:14:38;9.90;;;5.65;;
48623;SDS011;34422;45.802;16.114;2022-12-10T08:17:05;10.02;;;5.13;;
48623;SDS011;34422;45.802;16.114;2022-12-10T08:19:32;8.30;;;4.63;;
48623;SDS011;34422;45.802;16.114;2022-12-10T08:21:59;11.20;;;5.85;;
48623;SDS011;34422;45.802;16.114;2022-12-10T08:24:26;9.23;;;5.05;;
48623;SDS011;34422;45.802;16.114;2022-12-10T08:26:53;9.48;;;5.28;;
48623;SDS011;34422;45.802;16.114;2022-12-10T08:29:19;11.75;;;6.30;;
48623;SDS011;34422;45.802;16.114;2022-12-10T08:31:47;9.95;;;5.50;;
48623;SDS011;34422;45.802;16.114;2022-12-10T08:34:15;10.50;;;6.25;;
48623;SDS011;34422;45.802;16.114;2022-12-10T08:36:43;12.57;;;6.78;;
48623;SDS011;34422;45.802;16.114;2022-12-10T08:39:11;13.00;;;7.80;;
48623;SDS011;34422;45.802;16.114;2022-12-10T08:41:42;12.77;;;7.00;;
48623;SDS011;34422;45.802;16.114;2022-12-10T08:44:11;9.90;;;5.80;;
48623;SDS011;34422;45.802;16.114;2022-12-10T08:46:38;10.60;;;6.28;;
48623;SDS011;34422;45.802;16.114;2022-12-10T08:49:05;9.98;;;6.32;;
48623;SDS011;34422;45.802;16.114;2022-12-10T08:51:33;12.60;;;7.03;;
48623;SDS011;34422;45.802;16.114;2022-12-10T08:54:00;11.57;;;6.90;;
48623;SDS011;34422;45.802;16.114;2022-12-10T08:56:26;11.30;;;7.07;;
48623;SDS011;34422;45.802;16.114;2022-12-10T08:58:53;13.18;;;8.30;;
48623;SDS011;34422;45.802;16.114;2022-12-10T09:01:20;13.80;;;8.48;;
48623;SDS011;34422;45.802;16.114;2022-12-10T09:03:47;17.23;;;8.90;;
48623;SDS011;34422;45.802;16.114;2022-12-10T09:06:14;12.63;;;8.55;;
48623;SDS011;34422;45.802;16.114;2022-12-10T09:08:44;18.13;;;9.80;;
48623;SDS011;34422;45.802;16.114;2022-12-10T09:11:13;14.75;;;8.57;;
48623;SDS011;34422;45.802;16.114;2022-12-10T09:13:44;15.07;;;10.23;;
48623;SDS011;34422;45.802;16.114;2022-12-10T09:16:11;16.75;;;10.38;;
48623;SDS011;34422;45.802;16.114;2022-12-10T09:18:38;21.45;;;12.73;;
48623;SDS011;34422;45.802;16.114;2022-12-10T09:21:06;15.68;;;9.90;;
48623;SDS011;34422;45.802;16.114;2022-12-10T09:23:33;13.43;;;8.27;;
48623;SDS011;34422;45.802;16.114;2022-12-10T09:26:00;12.77;;;8.02;;
48623;SDS011;34422;45.802;16.114;2022-12-10T09:28:31;12.18;;;7.85;;
48623;SDS011;34422;45.802;16.114;2022-12-10T09:30:58;13.85;;;8.52;;
48623;SDS011;34422;45.802;16.114;2022-12-10T09:33:26;14.25;;;8.10;;
48623;SDS011;34422;45.802;16.114;2022-12-10T09:35:54;12.55;;;7.88;;
48623;SDS011;34422;45.802;16.114;2022-12-10T09:38:21;11.52;;;8.23;;
48623;SDS011;34422;45.802;16.114;2022-12-10T09:40:50;13.13;;;8.05;;
48623;SDS011;34422;45.802;16.114;2022-12-10T09:43:28;12.82;;;8.23;;
48623;SDS011;34422;45.802;16.114;2022-12-10T09:46:18;14.45;;;8.90;;
48623;SDS011;34422;45.802;16.114;2022-12-10T09:49:05;17.50;;;10.82;;
48623;SDS011;34422;45.802;16.114;2022-12-10T09:51:43;18.60;;;10.95;;
48623;SDS011;34422;45.802;16.114;2022-12-10T09:54:24;18.60;;;11.10;;
48623;SDS011;34422;45.802;16.114;2022-12-10T09:56:54;13.15;;;8.10;;
48623;SDS011;34422;45.802;16.114;2022-12-10T09:59:43;17.48;;;8.95;;
48623;SDS011;34422;45.802;16.114;2022-12-10T10:02:22;13.15;;;8.60;;
48623;SDS011;34422;45.802;16.114;2022-12-10T10:04:53;13.85;;;8.18;;
48623;SDS011;34422;45.802;16.114;2022-12-10T10:07:25;17.38;;;8.30;;
48623;SDS011;34422;45.802;16.114;2022-12-10T10:09:56;12.65;;;7.63;;
48623;SDS011;34422;45.802;16.114;2022-12-10T10:12:31;12.75;;;8.00;;
48623;SDS011;34422;45.802;16.114;2022-12-10T10:15:09;15.32;;;8.93;;
48623;SDS011;34422;45.802;16.114;2022-12-10T10:17:39;14.77;;;8.80;;
48623;SDS011;34422;45.802;16.114;2022-12-10T10:20:12;14.80;;;9.00;;
48623;SDS011;34422;45.802;16.114;2022-12-10T10:22:40;13.40;;;8.30;;
48623;SDS011;34422;45.802;16.114;2022-12-10T10:25:15;16.73;;;9.88;;
48623;SDS011;34422;45.802;16.114;2022-12-10T10:27:44;17.10;;;10.30;;
48623;SDS011;34422;45.802;16.114;2022-12-10T10:30:18;15.02;;;9.63;;
48623;SDS011;34422;45.802;16.114;2022-12-10T10:32:51;17.10;;;10.25;;
48623;SDS011;34422;45.802;16.114;2022-12-10T10:35:21;16.63;;;9.88;;
48623;SDS011;34422;45.802;16.114;2022-12-10T10:37:58;16.33;;;9.38;;
48623;SDS011;34422;45.802;16.114;2022-12-10T10:40:32;15.63;;;9.48;;
48623;SDS011;34422;45.802;16.114;2022-12-10T10:43:06;15.02;;;9.20;;
48623;SDS011;34422;45.802;16.114;2022-12-10T10:45:42;23.58;;;11.63;;
48623;SDS011;34422;45.802;16.114;2022-12-10T10:48:19;17.20;;;11.18;;
48623;SDS011;34422;45.802;16.114;2022-12-10T10:53:24;15.35;;;9.32;;
48623;SDS011;34422;45.802;16.114;2022-12-10T10:55:58;18.48;;;10.35;;
48623;SDS011;34422;45.802;16.114;2022-12-10T10:58:31;20.58;;;11.38;;
48623;SDS011;34422;45.802;16.114;2022-12-10T11:00:59;18.52;;;10.48;;
48623;SDS011;34422;45.802;16.114;2022-12-10T11:03:32;20.10;;;10.35;;
48623;SDS011;34422;45.802;16.114;2022-12-10T11:06:04;17.92;;;10.60;;
48623;SDS011;34422;45.802;16.114;2022-12-10T11:08:34;16.75;;;10.95;;
48623;SDS011;34422;45.802;16.114;2022-12-10T11:11:12;19.50;;;12.20;;
48623;SDS011;34422;45.802;16.114;2022-12-10T11:13:45;17.90;;;11.02;;
48623;SDS011;34422;45.802;16.114;2022-12-10T11:18:42;18.02;;;10.60;;
48623;SDS011;34422;45.802;16.114;2022-12-10T11:21:20;15.65;;;9.52;;
48623;SDS011;34422;45.802;16.114;2022-12-10T11:23:49;17.42;;;10.02;;
48623;SDS011;34422;45.802;16.114;2022-12-10T11:34:23;20.85;;;12.35;;
48623;SDS011;34422;45.802;16.114;2022-12-10T11:43:10;18.38;;;11.38;;
48623;SDS011;34422;45.802;16.114;2022-12-10T11:49:13;18.23;;;9.45;;
48623;SDS011;34422;45.802;16.114;2022-12-10T11:52:20;20.45;;;12.45;;
48623;SDS011;34422;45.802;16.114;2022-12-10T12:14:45;15.20;;;9.93;;
48623;SDS011;34422;45.802;16.114;2022-12-10T12:19:47;15.10;;;9.88;;
48623;SDS011;34422;45.802;16.114;2022-12-10T12:22:29;13.93;;;9.07;;
48623;SDS011;34422;45.802;16.114;2022-12-10T12:25:06;16.65;;;10.32;;
48623;SDS011;34422;45.802;16.114;2022-12-10T12:27:47;15.45;;;9.85;;
48623;SDS011;34422;45.802;16.114;2022-12-10T12:30:19;15.90;;;9.98;;
48623;SDS011;34422;45.802;16.114;2022-12-10T12:35:40;15.23;;;10.00;;
48623;SDS011;34422;45.802;16.114;2022-12-10T12:40:54;17.98;;;10.18;;
48623;SDS011;34422;45.802;16.114;2022-12-10T12:43:37;17.13;;;10.63;;
48623;SDS011;34422;45.802;16.114;2022-12-10T12:46:13;17.45;;;9.68;;
48623;SDS011;34422;45.802;16.114;2022-12-10T12:48:59;15.55;;;9.13;;
48623;SDS011;34422;45.802;16.114;2022-12-10T12:51:38;16.92;;;9.73;;
48623;SDS011;34422;45.802;16.114;2022-12-10T12:54:10;16.92;;;8.98;;
48623;SDS011;34422;45.802;16.114;2022-12-10T12:56:58;12.57;;;7.90;;
48623;SDS011;34422;45.802;16.114;2022-12-10T12:59:33;15.50;;;9.75;;
48623;SDS011;34422;45.802;16.114;2022-12-10T13:05:00;16.02;;;8.88;;
48623;SDS011;34422;45.802;16.114;2022-12-10T13:07:28;16.90;;;9.40;;
48623;SDS011;34422;45.802;16.114;2022-12-10T13:20:44;15.88;;;9.52;;
48623;SDS011;34422;45.802;16.114;2022-12-10T13:23:30;15.60;;;9.48;;
48623;SDS011;34422;45.802;16.114;2022-12-10T13:26:00;14.10;;;8.88;;
48623;SDS011;34422;45.802;16.114;2022-12-10T13:33:49;17.20;;;10.02;;
48623;SDS011;34422;45.802;16.114;2022-12-10T13:36:20;15.50;;;9.05;;
48623;SDS011;34422;45.802;16.114;2022-12-10T13:39:29;17.35;;;10.38;;
48623;SDS011;34422;45.802;16.114;2022-12-10T13:50:03;19.80;;;10.98;;
48623;SDS011;34422;45.802;16.114;2022-12-10T13:52:43;19.33;;;11.90;;
48623;SDS011;34422;45.802;16.114;2022-12-10T14:00:57;20.60;;;12.25;;
48623;SDS011;34422;45.802;16.114;2022-12-10T14:06:25;19.55;;;12.25;;
48623;SDS011;34422;45.802;16.114;2022-12-10T14:09:02;20.88;;;12.07;;
48623;SDS011;34422;45.802;16.114;2022-12-10T14:11:32;18.45;;;10.10;;
48623;SDS011;34422;45.802;16.114;2022-12-10T14:14:04;14.43;;;9.38;;
48623;SDS011;34422;45.802;16.114;2022-12-10T14:16:33;15.20;;;9.83;;
48623;SDS011;34422;45.802;16.114;2022-12-10T14:19:06;18.48;;;10.18;;
48623;SDS011;34422;45.802;16.114;2022-12-10T14:21:38;16.55;;;10.82;;
48623;SDS011;34422;45.802;16.114;2022-12-10T14:27:01;17.55;;;10.13;;
48623;SDS011;34422;45.802;16.114;2022-12-10T14:29:35;17.02;;;9.52;;
48623;SDS011;34422;45.802;16.114;2022-12-10T14:32:02;16.38;;;9.70;;
48623;SDS011;34422;45.802;16.114;2022-12-10T14:34:29;14.30;;;9.63;;
48623;SDS011;34422;45.802;16.114;2022-12-10T14:36:57;16.15;;;8.85;;
48623;SDS011;34422;45.802;16.114;2022-12-10T14:39:29;16.45;;;9.52;;
48623;SDS011;34422;45.802;16.114;2022-12-10T14:42:00;18.20;;;9.98;;
48623;SDS011;34422;45.802;16.114;2022-12-10T14:44:30;17.17;;;10.75;;
48623;SDS011;34422;45.802;16.114;2022-12-10T14:47:35;17.13;;;10.63;;
48623;SDS011;34422;45.802;16.114;2022-12-10T14:50:00;19.48;;;10.23;;
48623;SDS011;34422;45.802;16.114;2022-12-10T14:52:38;18.83;;;10.38;;
48623;SDS011;34422;45.802;16.114;2022-12-10T14:55:11;15.65;;;9.25;;
48623;SDS011;34422;45.802;16.114;2022-12-10T14:57:43;17.65;;;9.65;;
48623;SDS011;34422;45.802;16.114;2022-12-10T15:00:16;15.63;;;9.00;;
48623;SDS011;34422;45.802;16.114;2022-12-10T15:02:45;16.70;;;10.20;;
48623;SDS011;34422;45.802;16.114;2022-12-10T15:05:18;15.65;;;8.82;;
48623;SDS011;34422;45.802;16.114;2022-12-10T15:10:25;16.08;;;9.70;;
48623;SDS011;34422;45.802;16.114;2022-12-10T15:12:55;15.50;;;9.52;;
48623;SDS011;34422;45.802;16.114;2022-12-10T15:15:28;18.23;;;10.60;;
48623;SDS011;34422;45.802;16.114;2022-12-10T15:18:00;18.73;;;10.88;;
48623;SDS011;34422;45.802;16.114;2022-12-10T15:20:44;16.35;;;9.35;;
48623;SDS011;34422;45.802;16.114;2022-12-10T15:28:21;17.58;;;10.27;;
48623;SDS011;34422;45.802;16.114;2022-12-10T15:30:48;16.42;;;9.32;;
48623;SDS011;34422;45.802;16.114;2022-12-10T15:33:24;17.38;;;10.02;;
48623;SDS011;34422;45.802;16.114;2022-12-10T15:35:57;20.77;;;12.00;;
48623;SDS011;34422;45.802;16.114;2022-12-10T15:38:25;21.95;;;12.38;;
48623;SDS011;34422;45.802;16.114;2022-12-10T15:40:56;22.35;;;12.75;;
48623;SDS011;34422;45.802;16.114;2022-12-10T15:43:28;22.65;;;12.25;;
48623;SDS011;34422;45.802;16.114;2022-12-10T15:45:57;22.92;;;12.75;;
48623;SDS011;34422;45.802;16.114;2022-12-10T15:48:24;21.25;;;11.35;;
48623;SDS011;34422;45.802;16.114;2022-12-10T15:50:54;18.98;;;12.30;;
48623;SDS011;34422;45.802;16.114;2022-12-10T15:53:24;21.88;;;13.02;;
48623;SDS011;34422;45.802;16.114;2022-12-10T15:55:55;18.67;;;11.07;;
48623;SDS011;34422;45.802;16.114;2022-12-10T15:58:21;19.73;;;11.48;;
48623;SDS011;34422;45.802;16.114;2022-12-10T16:00:48;17.92;;;10.82;;
48623;SDS011;34422;45.802;16.114;2022-12-10T16:03:16;19.67;;;11.48;;
48623;SDS011;34422;45.802;16.114;2022-12-10T16:05:46;21.70;;;11.32;;
48623;SDS011;34422;45.802;16.114;2022-12-10T16:10:45;17.77;;;11.07;;
48623;SDS011;34422;45.802;16.114;2022-12-10T16:13:15;18.02;;;10.65;;
48623;SDS011;34422;45.802;16.114;2022-12-10T16:15:46;20.48;;;11.52;;
48623;SDS011;34422;45.802;16.114;2022-12-10T16:18:16;19.42;;;11.07;;
48623;SDS011;34422;45.802;16.114;2022-12-10T16:20:44;17.73;;;10.70;;
48623;SDS011;34422;45.802;16.114;2022-12-10T16:23:11;17.42;;;10.80;;
48623;SDS011;34422;45.802;16.114;2022-12-10T16:25:41;19.55;;;11.45;;
48623;SDS011;34422;45.802;16.114;2022-12-10T16:28:15;21.38;;;11.02;;
48623;SDS011;34422;45.802;16.114;2022-12-10T16:30:47;20.73;;;11.75;;